createdAt,value
2022-11-10T00:01:11.714Z,12.30
2022-11-10T00:03:40.845Z,12.30
2022-11-10T00:06:09.664Z,12.30
2022-11-10T00:08:37.869Z,12.30
2022-11-10T00:11:07.115Z,12.30
2022-11-10T00:14:00.170Z,12.30
2022-11-10T00:16:46.360Z,12.20
2022-11-10T00:19:14.889Z,12.20
2022-11-10T00:21:43.033Z,12.20
2022-11-10T00:24:11.143Z,12.20
2022-11-10T00:26:39.372Z,12.20
2022-11-10T00:29:11.451Z,12.10
2022-11-10T00:31:40.222Z,12.20
2022-11-10T00:34:09.482Z,12.10
2022-11-10T00:36:38.486Z,12.10
2022-11-10T00:39:08.499Z,12.00
2022-11-10T00:41:37.024Z,12.00
2022-11-10T00:44:05.326Z,11.90
2022-11-10T00:46:35.242Z,11.90
2022-11-10T00:49:07.388Z,11.90
2022-11-10T00:51:35.558Z,11.80
2022-11-10T00:54:03.978Z,11.80
2022-11-10T00:56:32.476Z,11.80
2022-11-10T00:59:00.752Z,11.80
2022-11-10T01:01:29.260Z,11.70
2022-11-10T01:03:59.458Z,11.70
2022-11-10T01:06:27.763Z,11.70
2022-11-10T01:08:55.991Z,11.70
2022-11-10T01:11:25.824Z,11.70
2022-11-10T01:13:54.753Z,11.70
2022-11-10T01:16:24.215Z,11.70
2022-11-10T01:18:52.744Z,11.70
2022-11-10T01:21:22.784Z,11.70
2022-11-10T01:23:51.741Z,11.60
2022-11-10T01:26:20.353Z,11.60
2022-11-10T01:28:49.208Z,11.60
2022-11-10T01:31:18.220Z,11.60
2022-11-10T01:33:46.640Z,11.50
2022-11-10T01:36:15.005Z,11.50
2022-11-10T01:38:44.945Z,11.40
2022-11-10T01:41:15.336Z,11.50
2022-11-10T01:43:43.649Z,11.40
2022-11-10T01:46:12.696Z,11.40
2022-11-10T01:48:44.001Z,11.40
2022-11-10T01:51:20.091Z,11.40
2022-11-10T01:53:51.802Z,11.40
2022-11-10T01:56:20.583Z,11.40
2022-11-10T01:58:51.444Z,11.40
2022-11-10T02:01:19.992Z,11.30
2022-11-10T02:03:50.706Z,11.30
2022-11-10T02:06:20.664Z,11.30
2022-11-10T02:08:51.356Z,11.30
2022-11-10T02:11:19.495Z,11.30
2022-11-10T02:13:47.978Z,11.30
2022-11-10T02:16:16.278Z,11.30
2022-11-10T02:18:44.513Z,11.30
2022-11-10T02:21:17.533Z,11.30
2022-11-10T02:23:49.936Z,11.30
2022-11-10T02:26:22.145Z,11.20
2022-11-10T02:28:50.482Z,11.20
2022-11-10T02:31:18.791Z,11.20
2022-11-10T02:33:46.986Z,11.20
2022-11-10T02:36:16.624Z,11.20
2022-11-10T02:38:44.964Z,11.10
2022-11-10T02:41:13.262Z,11.10
2022-11-10T02:43:43.654Z,11.10
2022-11-10T02:46:12.040Z,11.10
2022-11-10T02:48:40.311Z,11.00
2022-11-10T02:51:08.675Z,11.00
2022-11-10T02:53:38.391Z,11.00
2022-11-10T02:56:06.968Z,11.00
2022-11-10T02:58:35.254Z,11.00
2022-11-10T03:01:05.857Z,10.90
2022-11-10T03:03:34.457Z,10.90
2022-11-10T03:06:02.596Z,10.90
2022-11-10T03:08:30.725Z,10.80
2022-11-10T03:11:00.300Z,10.80
2022-11-10T03:13:40.229Z,10.80
2022-11-10T03:16:16.869Z,10.70
2022-11-10T03:18:45.089Z,10.80
2022-11-10T03:21:13.322Z,10.70
2022-11-10T03:23:41.634Z,10.70
2022-11-10T03:26:11.254Z,10.70
2022-11-10T03:28:42.612Z,10.60
2022-11-10T03:31:10.743Z,10.60
2022-11-10T03:33:38.832Z,10.60
2022-11-10T03:36:08.299Z,10.60
2022-11-10T03:38:36.429Z,10.50
2022-11-10T03:41:18.726Z,10.50
2022-11-10T03:43:48.952Z,10.50
2022-11-10T03:46:18.543Z,10.40
2022-11-10T03:48:52.832Z,10.40
2022-11-10T03:51:22.389Z,10.40
2022-11-10T03:53:50.610Z,10.40
2022-11-10T03:56:18.948Z,10.30
2022-11-10T03:58:48.626Z,10.30
2022-11-10T04:01:16.890Z,10.30
2022-11-10T04:03:51.549Z,10.20
2022-11-10T04:06:37.405Z,10.20
2022-11-10T04:09:06.583Z,10.20
2022-11-10T04:11:52.055Z,10.20
2022-11-10T04:14:38.896Z,10.20
2022-11-10T04:17:07.566Z,10.20
2022-11-10T04:19:35.714Z,10.20
2022-11-10T04:22:04.834Z,10.10
2022-11-10T04:24:35.314Z,10.10
2022-11-10T04:27:14.135Z,10.10
2022-11-10T04:29:46.305Z,10.10
2022-11-10T04:32:15.320Z,10.10
2022-11-10T04:34:43.547Z,10.00
2022-11-10T04:37:15.174Z,10.00
2022-11-10T04:39:43.342Z,10.10
2022-11-10T04:42:17.210Z,10.00
2022-11-10T04:44:46.721Z,10.00
2022-11-10T04:47:18.477Z,10.00
2022-11-10T04:49:46.872Z,10.00
2022-11-10T04:52:15.287Z,10.00
2022-11-10T04:54:45.080Z,10.00
2022-11-10T04:57:13.283Z,10.00
2022-11-10T04:59:43.097Z,10.00
2022-11-10T05:02:13.292Z,9.90
2022-11-10T05:04:41.973Z,9.90
2022-11-10T05:07:11.681Z,9.90
2022-11-10T05:10:02.250Z,9.90
2022-11-10T05:12:31.692Z,9.90
2022-11-10T05:15:02.632Z,9.90
2022-11-10T05:17:33.019Z,9.80
2022-11-10T05:20:11.919Z,9.80
2022-11-10T05:22:45.262Z,9.80
2022-11-10T05:25:17.059Z,9.80
2022-11-10T05:27:47.638Z,9.80
2022-11-10T05:30:21.830Z,9.70
2022-11-10T05:32:53.986Z,9.70
2022-11-10T05:35:22.297Z,9.70
2022-11-10T05:38:00.342Z,9.60
2022-11-10T05:40:28.556Z,9.60
2022-11-10T05:42:58.866Z,9.60
2022-11-10T05:45:35.576Z,9.60
2022-11-10T05:48:05.216Z,9.60
2022-11-10T05:50:33.466Z,9.60
2022-11-10T05:53:03.051Z,9.60
2022-11-10T05:55:36.862Z,9.70
2022-11-10T05:58:13.288Z,9.70
2022-11-10T06:00:41.967Z,9.70
2022-11-10T06:03:15.231Z,9.70
2022-11-10T06:05:43.977Z,9.70
2022-11-10T06:08:13.036Z,9.80
2022-11-10T06:10:45.047Z,9.80
2022-11-10T06:13:14.029Z,9.80
2022-11-10T06:15:47.514Z,9.80
2022-11-10T06:18:26.687Z,9.80
2022-11-10T06:20:55.543Z,9.80
2022-11-10T06:23:27.523Z,9.90
2022-11-10T06:25:57.988Z,9.80
2022-11-10T06:28:29.498Z,9.80
2022-11-10T06:31:00.360Z,9.80
2022-11-10T06:33:30.113Z,9.80
2022-11-10T06:35:58.930Z,9.80
2022-11-10T06:38:27.705Z,9.80
2022-11-10T06:40:55.952Z,9.80
2022-11-10T06:43:24.301Z,9.70
2022-11-10T06:45:55.372Z,9.80
2022-11-10T06:48:23.755Z,9.80
2022-11-10T06:50:53.535Z,9.80
2022-11-10T06:53:25.873Z,9.70
2022-11-10T06:55:55.512Z,9.70
2022-11-10T06:58:23.629Z,9.70
2022-11-10T07:00:51.885Z,9.70
2022-11-10T07:03:20.497Z,9.70
2022-11-10T07:05:51.780Z,9.70
2022-11-10T07:08:21.746Z,9.70
2022-11-10T07:10:53.208Z,9.80
2022-11-10T07:13:22.041Z,9.80
2022-11-10T07:15:50.831Z,9.90
2022-11-10T07:18:19.163Z,9.90
2022-11-10T07:20:47.383Z,10.00
2022-11-10T07:23:15.579Z,10.00
2022-11-10T07:25:45.149Z,10.00
2022-11-10T07:28:13.592Z,10.10
2022-11-10T07:30:42.129Z,10.10
2022-11-10T07:33:12.248Z,10.20
2022-11-10T07:35:40.617Z,10.30
2022-11-10T07:38:09.460Z,10.30
2022-11-10T07:40:37.989Z,10.40
2022-11-10T07:43:07.819Z,10.50
2022-11-10T07:45:36.128Z,10.60
2022-11-10T07:48:05.018Z,10.60
2022-11-10T07:50:33.982Z,10.60
2022-11-10T07:53:05.930Z,10.60
2022-11-10T07:55:34.982Z,10.70
2022-11-10T07:58:03.142Z,10.70
2022-11-10T08:00:33.081Z,10.80
2022-11-10T08:03:05.229Z,10.90
2022-11-10T08:05:33.854Z,10.90
2022-11-10T08:08:02.020Z,11.00
2022-11-10T08:10:30.227Z,11.00
2022-11-10T08:12:59.141Z,11.20
2022-11-10T08:15:27.924Z,11.20
2022-11-10T08:18:01.351Z,11.30
2022-11-10T08:20:29.558Z,11.30
2022-11-10T08:22:59.058Z,11.40
2022-11-10T08:25:33.151Z,11.50
2022-11-10T08:28:03.749Z,11.70
2022-11-10T08:30:31.990Z,11.70
2022-11-10T08:33:02.668Z,11.80
2022-11-10T08:35:36.655Z,11.80
2022-11-10T08:38:10.117Z,11.90
2022-11-10T08:40:38.674Z,12.00
2022-11-10T08:43:08.655Z,12.10
2022-11-10T08:45:38.179Z,12.10
2022-11-10T08:48:08.619Z,12.00
2022-11-10T08:50:36.929Z,12.00
2022-11-10T08:53:05.832Z,11.90
2022-11-10T08:55:33.997Z,11.90
2022-11-10T08:58:03.068Z,11.80
2022-11-10T09:00:31.711Z,11.90
2022-11-10T09:03:04.657Z,11.90
2022-11-10T09:05:34.266Z,12.00
2022-11-10T09:08:02.446Z,12.20
2022-11-10T09:10:30.665Z,12.30
2022-11-10T09:13:00.258Z,12.40
2022-11-10T09:15:28.611Z,12.40
2022-11-10T09:17:58.558Z,12.40
2022-11-10T09:20:26.741Z,12.30
2022-11-10T09:22:56.498Z,12.30
2022-11-10T09:25:24.875Z,12.30
2022-11-10T09:27:53.399Z,12.50
2022-11-10T09:30:21.487Z,12.60
2022-11-10T09:32:54.651Z,12.60
2022-11-10T09:35:23.120Z,12.70
2022-11-10T09:37:52.257Z,12.90
2022-11-10T09:40:25.087Z,12.90
2022-11-10T09:42:56.666Z,13.00
2022-11-10T09:45:25.848Z,13.10
2022-11-10T09:47:58.209Z,13.10
2022-11-10T09:50:31.761Z,13.20
2022-11-10T09:53:01.001Z,13.40
2022-11-10T09:55:34.781Z,13.50
2022-11-10T09:58:03.761Z,13.60
2022-11-10T10:00:33.319Z,13.60
2022-11-10T10:03:03.299Z,13.70
2022-11-10T10:05:36.284Z,13.60
2022-11-10T10:08:06.792Z,13.40
2022-11-10T10:10:39.917Z,13.40
2022-11-10T10:13:15.590Z,13.40
2022-11-10T10:15:46.208Z,13.40
2022-11-10T10:18:21.772Z,13.40
2022-11-10T10:20:54.049Z,13.50
2022-11-10T10:23:40.724Z,13.50
2022-11-10T10:26:16.234Z,13.60
2022-11-10T10:28:46.317Z,13.60
2022-11-10T10:31:16.700Z,13.60
2022-11-10T10:33:45.267Z,13.60
2022-11-10T10:36:16.584Z,13.70
2022-11-10T10:38:45.253Z,13.70
2022-11-10T10:41:20.967Z,13.80
2022-11-10T10:43:54.242Z,13.90
2022-11-10T10:46:28.394Z,14.00
2022-11-10T10:49:27.574Z,14.00
2022-11-10T10:52:12.366Z,14.00
2022-11-10T10:54:41.220Z,13.90
2022-11-10T10:57:23.628Z,13.80
2022-11-10T10:59:53.394Z,13.80
2022-11-10T11:02:24.932Z,13.90
2022-11-10T11:05:11.191Z,14.00
2022-11-10T11:07:39.921Z,14.00
2022-11-10T11:10:19.095Z,14.10
2022-11-10T11:12:47.359Z,14.20
2022-11-10T11:15:26.321Z,14.40
2022-11-10T11:17:59.964Z,14.60
2022-11-10T11:20:32.572Z,14.60
2022-11-10T11:23:04.048Z,14.40
2022-11-10T11:25:34.835Z,14.30
2022-11-10T11:28:08.390Z,14.40
2022-11-10T11:30:46.488Z,14.60
2022-11-10T11:33:30.542Z,14.60
2022-11-10T11:35:59.791Z,14.70
2022-11-10T11:38:32.897Z,14.70
2022-11-10T11:41:08.594Z,14.70
2022-11-10T11:44:08.927Z,14.80
2022-11-10T11:46:48.958Z,14.70
2022-11-10T11:49:31.619Z,14.70
2022-11-10T11:52:05.747Z,14.70
2022-11-10T11:54:41.579Z,14.80
2022-11-10T11:57:16.810Z,15.00
2022-11-10T11:59:54.991Z,14.90
2022-11-10T12:02:40.530Z,14.80
2022-11-10T12:05:13.295Z,14.80
2022-11-10T12:07:47.943Z,14.70
2022-11-10T12:10:25.324Z,14.70
2022-11-10T12:13:13.974Z,14.80
2022-11-10T12:16:11.513Z,14.70
2022-11-10T12:18:50.066Z,14.70
2022-11-10T12:21:27.438Z,14.70
2022-11-10T12:24:12.104Z,14.60
2022-11-10T12:26:43.165Z,14.60
2022-11-10T12:29:17.270Z,14.50
2022-11-10T12:31:48.257Z,14.50
2022-11-10T12:34:27.660Z,14.60
2022-11-10T12:36:56.642Z,14.60
2022-11-10T12:39:26.510Z,14.70
2022-11-10T12:41:57.333Z,14.70
2022-11-10T12:44:28.872Z,14.70
2022-11-10T12:46:58.969Z,14.70
2022-11-10T12:49:34.740Z,14.80
2022-11-10T12:52:08.498Z,14.70
2022-11-10T12:54:37.451Z,14.70
2022-11-10T12:57:08.550Z,14.70
2022-11-10T12:59:41.538Z,14.70
2022-11-10T13:02:19.377Z,14.70
2022-11-10T13:05:10.238Z,14.70
2022-11-10T13:07:39.023Z,14.60
2022-11-10T13:10:22.756Z,14.60
2022-11-10T13:12:59.729Z,14.60
2022-11-10T13:15:51.378Z,14.60
2022-11-10T13:18:41.384Z,14.70
2022-11-10T13:21:14.963Z,14.70
2022-11-10T13:24:12.311Z,14.70
2022-11-10T13:26:52.045Z,14.60
2022-11-10T13:29:21.821Z,14.60
2022-11-10T13:31:55.012Z,14.60
2022-11-10T13:34:34.380Z,14.60
2022-11-10T13:37:05.953Z,14.50
2022-11-10T13:39:34.959Z,14.50
2022-11-10T13:42:20.936Z,14.40
2022-11-10T13:44:55.955Z,14.40
2022-11-10T13:47:48.992Z,14.40
2022-11-10T13:50:30.264Z,14.40
2022-11-10T13:53:13.980Z,14.40
2022-11-10T13:55:49.615Z,14.40
2022-11-10T13:58:35.860Z,14.30
2022-11-10T14:01:30.734Z,14.30
2022-11-10T14:04:02.945Z,14.30
2022-11-10T14:06:41.365Z,14.30
2022-11-10T14:09:19.051Z,14.30
2022-11-10T14:11:50.412Z,14.20
2022-11-10T14:14:21.520Z,14.20
2022-11-10T14:16:53.219Z,14.20
2022-11-10T14:19:27.343Z,14.20
2022-11-10T14:21:58.364Z,14.10
2022-11-10T14:24:30.125Z,14.10
2022-11-10T14:26:59.529Z,14.10
2022-11-10T14:29:32.603Z,14.10
2022-11-10T14:32:03.253Z,14.10
2022-11-10T14:34:33.994Z,14.00
2022-11-10T14:37:03.738Z,14.00
2022-11-10T14:39:36.152Z,14.00
2022-11-10T14:42:19.222Z,13.90
2022-11-10T14:44:49.007Z,13.90
2022-11-10T14:47:25.552Z,13.80
2022-11-10T14:50:22.123Z,13.80
2022-11-10T14:52:53.800Z,13.80
2022-11-10T14:55:25.178Z,13.70
2022-11-10T14:57:55.864Z,13.70
2022-11-10T15:00:28.866Z,13.70
2022-11-10T15:02:58.647Z,13.60
2022-11-10T15:05:28.018Z,13.60
2022-11-10T15:07:57.424Z,13.50
2022-11-10T15:10:28.700Z,13.50
2022-11-10T15:13:05.011Z,13.40
2022-11-10T15:15:33.672Z,13.40
2022-11-10T15:18:02.052Z,13.30
2022-11-10T15:20:38.611Z,13.30
2022-11-10T15:23:08.262Z,13.20
2022-11-10T15:25:39.375Z,13.20
2022-11-10T15:28:15.782Z,13.10
2022-11-10T15:30:55.105Z,13.10
2022-11-10T15:33:26.322Z,13.10
2022-11-10T15:35:55.977Z,13.00
2022-11-10T15:38:31.682Z,12.90
2022-11-10T15:41:11.582Z,12.90
2022-11-10T15:43:40.393Z,12.80
2022-11-10T15:46:17.732Z,12.80
2022-11-10T15:48:48.886Z,12.70
2022-11-10T15:51:25.613Z,12.70
2022-11-10T15:53:55.631Z,12.60
2022-11-10T15:56:25.948Z,12.60
2022-11-10T15:58:59.220Z,12.50
2022-11-10T16:01:30.712Z,12.50
2022-11-10T16:03:59.460Z,12.40
2022-11-10T16:06:29.932Z,12.40
2022-11-10T16:08:58.392Z,12.30
2022-11-10T16:11:28.823Z,12.20
2022-11-10T16:13:57.493Z,12.20
2022-11-10T16:16:26.147Z,12.20
2022-11-10T16:18:54.553Z,12.20
2022-11-10T16:21:23.793Z,12.20
2022-11-10T16:23:52.646Z,12.10
2022-11-10T16:26:22.562Z,12.10
2022-11-10T16:28:52.383Z,12.10
2022-11-10T16:31:22.104Z,12.10
2022-11-10T16:33:51.282Z,12.00
2022-11-10T16:36:24.513Z,12.00
2022-11-10T16:38:53.195Z,11.90
2022-11-10T16:41:21.468Z,11.90
2022-11-10T16:43:50.504Z,11.90
2022-11-10T16:46:21.513Z,11.90
2022-11-10T16:48:51.423Z,11.80
2022-11-10T16:51:19.737Z,11.70
2022-11-10T16:53:55.222Z,11.70
2022-11-10T16:56:23.453Z,11.70
2022-11-10T16:58:54.774Z,11.70
2022-11-10T17:01:25.833Z,11.60
2022-11-10T17:03:55.463Z,11.60
2022-11-10T17:06:24.982Z,11.50
2022-11-10T17:08:54.373Z,11.50
2022-11-10T17:11:24.663Z,11.50
2022-11-10T17:13:53.162Z,11.50
2022-11-10T17:16:27.446Z,11.50
2022-11-10T17:18:58.044Z,11.40
2022-11-10T17:21:31.596Z,11.50
2022-11-10T17:24:02.113Z,11.50
2022-11-10T17:26:30.825Z,11.40
2022-11-10T17:28:59.223Z,11.40
2022-11-10T17:31:27.543Z,11.40
2022-11-10T17:33:57.364Z,11.30
2022-11-10T17:36:25.653Z,11.30
2022-11-10T17:38:54.682Z,11.30
2022-11-10T17:41:23.028Z,11.30
2022-11-10T17:43:51.337Z,11.20
2022-11-10T17:46:19.824Z,11.20
2022-11-10T17:48:49.813Z,11.20
2022-11-10T17:51:20.273Z,11.10
2022-11-10T17:53:50.716Z,11.10
2022-11-10T17:56:19.204Z,11.00
2022-11-10T17:58:47.653Z,11.00
2022-11-10T18:01:18.866Z,11.00
2022-11-10T18:03:47.645Z,10.90
2022-11-10T18:06:16.545Z,10.90
2022-11-10T18:08:46.926Z,10.80
2022-11-10T18:11:16.384Z,10.80
2022-11-10T18:13:45.425Z,10.80
2022-11-10T18:16:15.297Z,10.70
2022-11-10T18:18:45.240Z,10.80
2022-11-10T18:21:16.765Z,10.70
2022-11-10T18:23:47.363Z,10.70
2022-11-10T18:26:16.492Z,10.70
2022-11-10T18:28:48.770Z,10.70
2022-11-10T18:31:19.642Z,10.60
2022-11-10T18:33:49.357Z,10.60
2022-11-10T18:36:18.830Z,10.60
2022-11-10T18:38:49.709Z,10.60
2022-11-10T18:41:36.049Z,10.60
2022-11-10T18:44:05.967Z,10.60
2022-11-10T18:46:36.182Z,10.60
2022-11-10T18:49:05.393Z,10.60
2022-11-10T18:51:34.824Z,10.50
2022-11-10T18:54:06.410Z,10.50
2022-11-10T18:56:36.104Z,10.50
2022-11-10T18:59:06.351Z,10.40
2022-11-10T19:01:35.327Z,10.40
2022-11-10T19:04:04.978Z,10.40
2022-11-10T19:06:34.530Z,10.40
2022-11-10T19:09:06.244Z,10.40
2022-11-10T19:11:35.907Z,10.40
2022-11-10T19:14:06.370Z,10.40
2022-11-10T19:16:35.784Z,10.40
2022-11-10T19:19:06.905Z,10.40
2022-11-10T19:21:36.192Z,10.30
2022-11-10T19:24:08.162Z,10.30
2022-11-10T19:26:38.502Z,10.30
2022-11-10T19:29:07.943Z,10.30
2022-11-10T19:31:37.287Z,10.20
2022-11-10T19:34:07.406Z,10.20
2022-11-10T19:36:37.222Z,10.20
2022-11-10T19:39:11.702Z,10.20
2022-11-10T19:41:45.859Z,10.20
2022-11-10T19:44:15.983Z,10.20
2022-11-10T19:46:48.078Z,10.10
2022-11-10T19:49:17.863Z,10.10
2022-11-10T19:51:48.933Z,10.10
2022-11-10T19:54:20.725Z,10.10
2022-11-10T19:56:50.281Z,10.10
2022-11-10T19:59:21.729Z,10.00
2022-11-10T20:01:51.585Z,10.00
2022-11-10T20:04:21.326Z,10.00
2022-11-10T20:07:13.315Z,10.00
2022-11-10T20:09:45.381Z,10.00
2022-11-10T20:12:15.408Z,10.00
2022-11-10T20:14:44.959Z,9.90
2022-11-10T20:17:16.243Z,9.90
2022-11-10T20:19:45.242Z,9.90
2022-11-10T20:22:14.741Z,9.90
2022-11-10T20:24:50.821Z,9.90
2022-11-10T20:27:20.995Z,9.90
2022-11-10T20:29:49.754Z,9.80
2022-11-10T20:32:19.003Z,9.80
2022-11-10T20:34:47.833Z,9.80
2022-11-10T20:37:40.376Z,9.80
2022-11-10T20:40:42.427Z,9.80
2022-11-10T20:43:02.197Z,9.80
2022-11-10T20:45:33.574Z,9.70
2022-11-10T20:48:02.404Z,9.70
2022-11-10T20:50:30.733Z,9.80
2022-11-10T20:52:59.492Z,9.70
2022-11-10T20:55:52.212Z,9.80
2022-11-10T20:58:19.233Z,9.70
2022-11-10T21:00:47.664Z,9.60
2022-11-10T21:03:16.434Z,9.50
2022-11-10T21:05:45.111Z,9.60
2022-11-10T21:08:13.553Z,9.60
2022-11-10T21:10:43.643Z,9.60
2022-11-10T21:13:15.080Z,9.50
2022-11-10T21:15:43.903Z,9.50
2022-11-10T21:18:12.712Z,9.50
2022-11-10T21:20:41.664Z,9.50
2022-11-10T21:23:11.264Z,9.50
2022-11-10T21:25:39.953Z,9.50
2022-11-10T21:28:09.962Z,9.50
2022-11-10T21:30:38.449Z,9.50
2022-11-10T21:33:07.303Z,9.50
2022-11-10T21:35:38.356Z,9.50
2022-11-10T21:38:07.113Z,9.40
2022-11-10T21:40:35.643Z,9.40
2022-11-10T21:43:04.123Z,9.40
2022-11-10T21:45:34.073Z,9.40
2022-11-10T21:48:04.891Z,9.40
2022-11-10T21:50:33.761Z,9.30
2022-11-10T21:53:02.461Z,9.30
2022-11-10T21:55:30.946Z,9.30
2022-11-10T21:58:07.294Z,9.30
2022-11-10T22:00:38.302Z,9.30
2022-11-10T22:03:10.013Z,9.30
2022-11-10T22:05:38.452Z,9.30
2022-11-10T22:08:08.794Z,9.30
2022-11-10T22:10:55.241Z,9.30
2022-11-10T22:13:42.617Z,9.30
2022-11-10T22:16:38.434Z,9.30
2022-11-10T22:19:08.653Z,9.30
2022-11-10T22:21:38.070Z,9.30
2022-11-10T22:24:24.113Z,9.30
2022-11-10T22:26:53.149Z,9.30
2022-11-10T22:29:26.100Z,9.30
2022-11-10T22:32:00.301Z,9.30
2022-11-10T22:34:28.932Z,9.20
2022-11-10T22:36:59.837Z,9.20
2022-11-10T22:39:48.779Z,9.20
2022-11-10T22:42:34.842Z,9.20
2022-11-10T22:45:04.960Z,9.20
2022-11-10T22:47:51.550Z,9.20
2022-11-10T22:50:21.029Z,9.20
2022-11-10T22:52:50.171Z,9.20
2022-11-10T22:55:18.580Z,9.20
2022-11-10T22:57:47.131Z,9.20
2022-11-10T23:00:16.446Z,9.20
2022-11-10T23:02:47.161Z,9.20
2022-11-10T23:05:15.530Z,9.20
2022-11-10T23:07:44.280Z,9.20
2022-11-10T23:10:15.000Z,9.10
2022-11-10T23:12:43.582Z,9.10
2022-11-10T23:15:12.139Z,9.10
2022-11-10T23:17:40.540Z,9.10
2022-11-10T23:20:12.951Z,9.00
2022-11-10T23:22:42.210Z,9.10
2022-11-10T23:25:19.370Z,9.00
2022-11-10T23:27:49.381Z,9.10
2022-11-10T23:30:19.440Z,9.10
2022-11-10T23:32:51.320Z,9.10
2022-11-10T23:35:24.365Z,9.10
2022-11-10T23:37:53.331Z,9.00
2022-11-10T23:40:21.811Z,9.00
2022-11-10T23:42:50.380Z,9.10
2022-11-10T23:45:18.847Z,9.10
2022-11-10T23:47:49.430Z,9.00
2022-11-10T23:50:18.230Z,9.00
2022-11-10T23:52:49.449Z,9.00
2022-11-10T23:55:22.562Z,9.00
2022-11-10T23:57:51.020Z,8.90
